Time;durP1;ratioP1;P1;durP2;ratioP2;P2;SDS_P1;SDS_P2;PMS_P1;PMS_P2;Temp;Humidity;BMP_temperature;BMP_pressure;BME280_temperature;BME280_humidity;BME280_pressure;Samples;Min_cycle;Max_cycle;Signal;HPM_P1;HPM_P2
2022/06/28 00:01:19;;;;;;;8.07;7.28;;;20.90;99.90;;;;;;4987935;28;20070;-66
2022/06/28 00:03:46;;;;;;;8.77;8.18;;;20.90;99.90;;;;;;5010574;28;20061;-66
2022/06/28 00:06:13;;;;;;;8.75;7.82;;;20.90;99.90;;;;;;5015788;28;20463;-67
2022/06/28 00:08:40;;;;;;;8.00;7.40;;;20.80;99.90;;;;;;5014232;28;20065;-66
2022/06/28 00:11:07;;;;;;;8.27;7.68;;;20.80;99.90;;;;;;5007556;28;20171;-70
2022/06/28 00:13:34;;;;;;;8.32;7.70;;;20.80;99.90;;;;;;5012295;28;20063;-66
2022/06/28 00:16:07;;;;;;;8.40;7.68;;;20.80;99.90;;;;;;5010268;28;20138;-67
2022/06/28 00:18:36;;;;;;;8.55;7.85;;;20.80;99.90;;;;;;5018589;28;20053;-66
2022/06/28 00:21:04;;;;;;;7.70;7.10;;;20.80;99.90;;;;;;5013505;28;20405;-66
2022/06/28 00:23:31;;;;;;;7.68;7.10;;;20.80;99.90;;;;;;4992431;28;20070;-67
2022/06/28 00:25:58;;;;;;;9.07;8.40;;;20.80;99.90;;;;;;4989765;28;20054;-67
2022/06/28 00:28:25;;;;;;;7.70;6.85;;;20.80;99.90;;;;;;4986697;28;20126;-68
2022/06/28 00:30:52;;;;;;;8.48;7.78;;;20.80;99.90;;;;;;4994905;28;20064;-71
2022/06/28 00:33:19;;;;;;;9.00;8.23;;;20.80;99.90;;;;;;4997162;28;20399;-69
2022/06/28 00:35:46;;;;;;;8.02;7.40;;;20.80;99.90;;;;;;4989081;28;20119;-70
2022/06/28 00:38:13;;;;;;;8.32;7.72;;;20.70;99.90;;;;;;4987716;28;20092;-73
2022/06/28 00:40:49;;;;;;;8.07;7.47;;;20.70;99.90;;;;;;4989624;28;20046;-69
2022/06/28 00:43:18;;;;;;;11.35;9.25;;;20.70;99.90;;;;;;4986468;28;20046;-75
2022/06/28 00:45:45;;;;;;;8.35;7.75;;;20.70;99.90;;;;;;4991662;28;20050;-69
2022/06/28 00:48:15;;;;;;;8.52;7.68;;;20.70;99.90;;;;;;4992623;28;20061;-69
2022/06/28 00:50:42;;;;;;;8.27;7.68;;;20.70;99.90;;;;;;4988448;28;20135;-67
2022/06/28 00:53:14;;;;;;;7.68;7.18;;;20.70;99.90;;;;;;4996648;28;20046;-67
2022/06/28 00:55:43;;;;;;;7.53;6.95;;;20.70;99.90;;;;;;4986687;28;20061;-67
2022/06/28 00:58:11;;;;;;;8.90;8.00;;;20.60;99.90;;;;;;4992959;28;20069;-71
2022/06/28 01:00:44;;;;;;;8.25;7.60;;;20.60;99.90;;;;;;4986869;28;20200;-67
2022/06/28 01:03:17;;;;;;;7.47;6.95;;;20.60;99.90;;;;;;5000164;28;20778;-68
2022/06/28 01:05:47;;;;;;;8.10;7.38;;;20.60;99.90;;;;;;4987881;28;20137;-72
2022/06/28 01:08:15;;;;;;;10.00;9.30;;;20.60;99.90;;;;;;4998397;28;20045;-67
2022/06/28 01:10:42;;;;;;;7.85;7.35;;;20.50;99.90;;;;;;5000011;28;20087;-71
2022/06/28 01:13:12;;;;;;;7.93;7.32;;;20.50;99.90;;;;;;4991709;28;20042;-72
2022/06/28 01:15:41;;;;;;;8.15;7.55;;;20.50;99.90;;;;;;4994686;28;23173;-66
2022/06/28 01:18:10;;;;;;;8.15;7.55;;;20.50;99.90;;;;;;4999712;28;20103;-73
2022/06/28 01:20:44;;;;;;;8.55;7.85;;;20.50;99.90;;;;;;4997763;28;20049;-72
2022/06/28 01:23:25;;;;;;;8.57;7.88;;;20.50;99.90;;;;;;4996575;28;20049;-70
2022/06/28 01:26:01;;;;;;;9.15;8.50;;;20.50;99.90;;;;;;4992155;28;20061;-67
2022/06/28 01:28:36;;;;;;;9.05;8.40;;;20.40;99.90;;;;;;4994500;28;20053;-68
2022/06/28 01:31:26;;;;;;;;;;;20.40;99.90;;;;;;4993635;28;20089;-68
2022/06/28 01:33:57;;;;;;;8.38;7.68;;;20.40;99.90;;;;;;4990474;28;20037;-68
2022/06/28 01:36:24;;;;;;;9.35;8.48;;;20.40;99.90;;;;;;4992134;28;20084;-68
2022/06/28 01:38:51;;;;;;;9.38;8.63;;;20.40;99.90;;;;;;4991832;28;20132;-66
2022/06/28 01:41:33;;;;;;;8.45;7.85;;;20.40;99.90;;;;;;4994989;28;20046;-69
2022/06/28 01:44:08;;;;;;;8.90;8.20;;;20.40;99.90;;;;;;5015751;28;20061;-69
2022/06/28 01:46:42;;;;;;;8.63;8.02;;;20.40;99.90;;;;;;5023560;28;20088;-71
2022/06/28 01:49:14;;;;;;;8.32;7.72;;;20.30;99.90;;;;;;5016675;28;20066;-66
2022/06/28 01:51:41;;;;;;;8.98;7.95;;;20.30;99.90;;;;;;5004844;28;20061;-67
2022/06/28 01:54:09;;;;;;;10.05;8.93;;;20.30;99.90;;;;;;5018104;28;20152;-67
2022/06/28 01:56:36;;;;;;;8.77;8.18;;;20.30;99.90;;;;;;5011255;28;20092;-71
2022/06/28 01:59:15;;;;;;;8.02;7.43;;;20.30;99.90;;;;;;5011053;28;20049;-67
2022/06/28 02:01:58;;;;;;;9.63;8.73;;;20.30;99.90;;;;;;4997100;28;20444;-70
2022/06/28 02:04:31;;;;;;;9.80;9.00;;;20.30;99.90;;;;;;4990834;28;20067;-67
2022/06/28 02:07:02;;;;;;;8.93;8.23;;;20.30;99.90;;;;;;4989552;28;20153;-71
2022/06/28 02:09:35;;;;;;;8.40;7.55;;;20.30;99.90;;;;;;4995015;28;20065;-70
2022/06/28 02:12:03;;;;;;;8.65;7.75;;;20.30;99.90;;;;;;4995192;28;20065;-67
2022/06/28 02:14:31;;;;;;;9.02;8.32;;;20.30;99.90;;;;;;4991913;28;20400;-66
2022/06/28 02:17:01;;;;;;;7.72;7.22;;;20.30;99.90;;;;;;4991978;28;20061;-67
2022/06/28 02:19:28;;;;;;;7.38;6.90;;;20.30;99.90;;;;;;4985362;28;20909;-67
2022/06/28 02:21:55;;;;;;;11.27;8.35;;;20.30;99.90;;;;;;4993904;28;20069;-69
2022/06/28 02:24:26;;;;;;;8.40;7.35;;;20.30;99.90;;;;;;4992951;28;20046;-69
2022/06/28 02:26:53;;;;;;;8.77;7.97;;;20.30;99.90;;;;;;4994678;28;20129;-67
2022/06/28 02:29:20;;;;;;;7.60;7.00;;;20.30;99.90;;;;;;4988393;28;20070;-68
2022/06/28 02:31:47;;;;;;;8.82;7.93;;;20.30;99.90;;;;;;4985094;28;20058;-69
2022/06/28 02:40:21;;;;;;;8.02;7.53;;;20.40;99.90;;;;;;4985781;28;20099;-67
2022/06/28 02:42:32;;;;;;;8.10;7.55;;;20.40;99.90;;;;;;5002387;28;20480;-68
2022/06/28 02:44:59;;;;;;;9.07;8.38;;;20.50;99.90;;;;;;4998394;28;20057;-67
2022/06/28 02:47:26;;;;;;;8.57;7.90;;;20.50;99.90;;;;;;4998228;28;20046;-67
2022/06/28 02:49:53;;;;;;;8.95;8.02;;;20.50;99.90;;;;;;4993501;28;20050;-68
2022/06/28 02:52:20;;;;;;;8.73;7.88;;;20.50;99.90;;;;;;4986130;28;20054;-67
2022/06/28 02:54:47;;;;;;;8.57;7.88;;;20.60;99.90;;;;;;4994654;28;20054;-68
2022/06/28 02:57:14;;;;;;;9.25;8.40;;;20.60;99.90;;;;;;4989668;28;20124;-67
2022/06/28 02:59:40;;;;;;;8.73;7.97;;;20.60;99.90;;;;;;4987776;28;20378;-66
2022/06/28 03:02:07;;;;;;;9.05;8.25;;;20.70;99.90;;;;;;4994365;28;20043;-69
2022/06/28 03:04:34;;;;;;;8.93;8.13;;;20.70;99.90;;;;;;4989752;28;20073;-66
2022/06/28 03:07:02;;;;;;;9.80;8.15;;;20.80;99.90;;;;;;4986182;28;20702;-67
2022/06/28 03:09:29;;;;;;;10.65;9.80;;;20.80;99.90;;;;;;4996508;28;20041;-69
2022/06/28 03:11:56;;;;;;;8.93;8.23;;;20.80;99.90;;;;;;4996662;28;20042;-66
2022/06/28 03:14:23;;;;;;;9.82;8.95;;;20.90;99.90;;;;;;4999669;28;20431;-70
2022/06/28 03:16:50;;;;;;;9.65;8.95;;;20.90;99.90;;;;;;4990218;28;20046;-68
2022/06/28 03:19:17;;;;;;;8.48;7.88;;;21.00;99.90;;;;;;4986311;28;20050;-67
2022/06/28 03:21:44;;;;;;;8.95;8.25;;;21.00;99.90;;;;;;4993706;28;20519;-68
2022/06/28 03:24:11;;;;;;;10.63;9.75;;;21.00;99.90;;;;;;4990845;28;20073;-66
2022/06/28 03:26:38;;;;;;;9.45;8.55;;;21.10;99.90;;;;;;4991024;28;20042;-66
2022/06/28 03:29:05;;;;;;;9.98;8.90;;;21.10;99.90;;;;;;4993858;28;20130;-69
2022/06/28 03:31:32;;;;;;;10.00;9.18;;;21.10;99.90;;;;;;4987445;28;20053;-68
2022/06/28 03:33:59;;;;;;;9.65;8.85;;;21.20;99.90;;;;;;4987389;28;20050;-68
2022/06/28 03:36:26;;;;;;;10.05;9.07;;;21.20;99.90;;;;;;4996676;28;20052;-68
2022/06/28 03:39:10;;;;;;;9.25;8.55;;;21.30;99.90;;;;;;4990951;28;20050;-71
2022/06/28 03:41:45;;;;;;;9.57;8.77;;;21.30;99.90;;;;;;4993326;28;20762;-67
2022/06/28 03:44:12;;;;;;;10.02;9.05;;;21.40;99.90;;;;;;4989660;28;20407;-67
2022/06/28 03:46:39;;;;;;;9.65;8.30;;;21.40;99.90;;;;;;4990234;28;20052;-66
2022/06/28 03:49:25;;;;;;;12.93;9.60;;;21.50;99.90;;;;;;4985234;28;20464;-73
2022/06/28 03:51:58;;;;;;;10.38;9.05;;;21.50;99.90;;;;;;4993977;28;20062;-68
2022/06/28 03:54:35;;;;;;;10.68;9.43;;;21.60;99.90;;;;;;4986481;28;20035;-66
2022/06/28 03:57:26;;;;;;;9.10;8.50;;;21.60;99.90;;;;;;4991116;28;20045;-70
2022/06/28 03:59:56;;;;;;;10.77;9.43;;;21.70;99.90;;;;;;4984847;28;20049;-69
2022/06/28 04:02:24;;;;;;;10.35;9.38;;;21.70;99.90;;;;;;4988309;28;20052;-69
2022/06/28 04:04:51;;;;;;;10.95;9.88;;;21.80;99.90;;;;;;4987604;28;20042;-66
2022/06/28 04:07:18;;;;;;;9.50;8.73;;;21.80;99.90;;;;;;4990308;28;20054;-67
2022/06/28 04:09:47;;;;;;;11.00;10.07;;;21.80;99.90;;;;;;4984628;28;20571;-75
2022/06/28 04:12:16;;;;;;;9.40;8.60;;;21.90;99.90;;;;;;4986793;28;20388;-69
2022/06/28 04:14:44;;;;;;;10.68;9.57;;;21.90;99.90;;;;;;5005291;28;20136;-69
2022/06/28 04:17:11;;;;;;;10.75;9.95;;;21.90;99.90;;;;;;4989599;28;20681;-66
2022/06/28 04:19:51;;;;;;;;;;;21.90;99.90;;;;;;5010041;28;20046;-66
2022/06/28 04:22:18;;;;;;;11.98;10.88;;;22.00;99.90;;;;;;5015022;28;20452;-67
2022/06/28 04:24:45;;;;;;;9.85;9.02;;;22.00;99.90;;;;;;5013944;28;20060;-70
2022/06/28 04:27:20;;;;;;;11.70;10.70;;;21.90;99.90;;;;;;5000274;28;20057;-67
2022/06/28 04:29:47;;;;;;;11.07;10.18;;;21.90;99.90;;;;;;5008712;28;20793;-70
2022/06/28 04:32:41;;;;;;;12.75;11.18;;;22.00;99.90;;;;;;5006091;28;20067;-71
2022/06/28 04:35:08;;;;;;;10.00;9.10;;;22.00;99.90;;;;;;5017230;28;20523;-70
2022/06/28 04:37:37;;;;;;;11.80;10.75;;;22.00;99.90;;;;;;5014650;28;20045;-68
2022/06/28 04:40:14;;;;;;;10.50;9.70;;;22.00;99.90;;;;;;5012341;28;20045;-66
2022/06/28 04:42:51;;;;;;;11.20;10.20;;;22.10;99.90;;;;;;5012860;28;20136;-66
2022/06/28 04:45:18;;;;;;;9.85;9.07;;;22.20;99.90;;;;;;5012606;28;20083;-67
2022/06/28 04:47:58;;;;;;;12.48;9.90;;;22.20;99.90;;;;;;5003289;28;20130;-70
2022/06/28 04:50:25;;;;;;;10.63;9.43;;;22.20;99.90;;;;;;4990640;28;20047;-68
2022/06/28 04:52:52;;;;;;;9.93;9.23;;;22.30;99.90;;;;;;4992424;28;20631;-67
2022/06/28 04:55:20;;;;;;;11.38;10.15;;;22.40;99.90;;;;;;5009220;28;20493;-69
2022/06/28 04:57:54;;;;;;;14.43;10.23;;;22.40;99.90;;;;;;5012307;28;20060;-71
2022/06/28 05:00:21;;;;;;;10.60;9.60;;;22.50;99.90;;;;;;5012669;28;20063;-69
2022/06/28 05:02:56;;;;;;;10.50;9.60;;;22.60;99.90;;;;;;5016610;28;20052;-67
2022/06/28 05:05:42;;;;;;;11.20;9.57;;;22.60;99.90;;;;;;5010018;28;20184;-67
2022/06/28 05:08:26;;;;;;;12.38;10.93;;;22.70;99.90;;;;;;5014708;28;20038;-69
2022/06/28 05:11:01;;;;;;;11.27;10.38;;;22.80;99.90;;;;;;5008964;28;20064;-66
2022/06/28 05:13:48;;;;;;;9.25;8.65;;;22.90;99.90;;;;;;4957481;28;20080;-65
2022/06/28 05:16:16;;;;;;;10.93;10.02;;;22.90;99.90;;;;;;5013596;28;20053;-66
2022/06/28 05:18:44;;;;;;;10.85;10.05;;;23.00;99.90;;;;;;5000846;28;20061;-66
2022/06/28 05:21:14;;;;;;;11.95;10.82;;;23.00;99.90;;;;;;4995574;28;20730;-66
2022/06/28 05:23:43;;;;;;;10.80;9.70;;;23.10;99.90;;;;;;4988048;28;20070;-66
2022/06/28 05:26:25;;;;;;;12.38;11.35;;;23.20;99.90;;;;;;4993421;28;20058;-67
2022/06/28 05:29:09;;;;;;;10.95;10.05;;;23.30;99.90;;;;;;4994375;28;20500;-65
2022/06/28 05:31:36;;;;;;;11.30;9.82;;;23.40;99.90;;;;;;4988007;28;20105;-66
2022/06/28 05:34:03;;;;;;;10.73;9.73;;;23.50;99.90;;;;;;4990222;28;20050;-66
2022/06/28 05:36:30;;;;;;;10.52;9.65;;;23.50;99.90;;;;;;4990558;28;20049;-67
2022/06/28 05:38:57;;;;;;;11.23;9.98;;;23.60;99.90;;;;;;4993379;28;20050;-66
2022/06/28 05:41:24;;;;;;;11.13;10.23;;;23.60;99.90;;;;;;4990853;28;20109;-66
2022/06/28 05:43:55;;;;;;;11.32;10.18;;;23.70;99.90;;;;;;4992660;28;20054;-67
2022/06/28 05:46:22;;;;;;;13.10;9.63;;;23.70;99.90;;;;;;4994833;28;20066;-68
2022/06/28 05:48:49;;;;;;;11.00;9.98;;;23.90;99.90;;;;;;4997654;28;20057;-68
2022/06/28 05:51:16;;;;;;;9.55;8.75;;;24.00;99.90;;;;;;4996166;28;21119;-67
2022/06/28 05:53:43;;;;;;;9.82;9.10;;;24.00;99.90;;;;;;4990129;28;20061;-65
2022/06/28 05:56:10;;;;;;;10.07;9.18;;;24.00;99.90;;;;;;4991944;28;20064;-65
2022/06/28 05:58:37;;;;;;;9.35;8.50;;;24.10;99.90;;;;;;4989810;28;20095;-66
2022/06/28 06:01:05;;;;;;;10.32;9.38;;;24.20;99.90;;;;;;4990249;28;20045;-66
2022/06/28 06:03:33;;;;;;;9.27;8.00;;;24.30;99.90;;;;;;4991837;28;20051;-66
2022/06/28 06:06:00;;;;;;;10.02;8.60;;;24.30;99.90;;;;;;4996167;28;20050;-66
2022/06/28 06:08:29;;;;;;;9.73;8.82;;;24.40;99.90;;;;;;4984601;28;20046;-67
2022/06/28 06:10:56;;;;;;;10.27;9.27;;;24.50;99.90;;;;;;4990326;28;20133;-67
2022/06/28 06:13:23;;;;;;;9.25;8.55;;;24.60;99.90;;;;;;4992813;28;20156;-68
2022/06/28 06:15:50;;;;;;;9.68;8.77;;;24.70;99.90;;;;;;4995190;28;20487;-66
2022/06/28 06:18:17;;;;;;;9.23;8.38;;;24.80;99.90;;;;;;5003982;28;20146;-66
2022/06/28 06:20:44;;;;;;;9.75;8.55;;;24.80;99.90;;;;;;5002925;28;20055;-65
2022/06/28 06:23:11;;;;;;;8.18;7.43;;;24.90;99.90;;;;;;5003228;28;20695;-65
2022/06/28 06:25:57;;;;;;;8.48;7.57;;;25.00;99.90;;;;;;4988276;28;20061;-68
2022/06/28 06:28:24;;;;;;;9.45;8.55;;;25.00;99.90;;;;;;4983377;28;20050;-69
2022/06/28 06:30:51;;;;;;;9.60;8.80;;;25.10;99.90;;;;;;4985473;28;20050;-65
2022/06/28 06:33:29;;;;;;;7.88;7.20;;;25.20;99.90;;;;;;4988611;28;20049;-68
2022/06/28 06:36:04;;;;;;;7.85;7.22;;;25.30;99.90;;;;;;4993505;28;20135;-66
2022/06/28 06:38:33;;;;;;;7.75;7.05;;;25.30;99.90;;;;;;4989264;28;20053;-66
2022/06/28 06:41:00;;;;;;;8.88;7.10;;;25.40;99.90;;;;;;5004669;28;20072;-67
2022/06/28 06:43:27;;;;;;;8.48;6.82;;;25.50;99.90;;;;;;4995232;28;20046;-66
2022/06/28 06:46:07;;;;;;;8.15;7.45;;;25.60;99.90;;;;;;4987649;28;20709;-70
2022/06/28 06:48:34;;;;;;;6.80;6.20;;;25.80;99.90;;;;;;4999778;28;20131;-67
2022/06/28 06:51:01;;;;;;;8.15;6.97;;;25.80;99.90;;;;;;4990433;28;20057;-67
2022/06/28 06:53:29;;;;;;;7.07;6.05;;;25.90;99.90;;;;;;4994890;28;20084;-69
2022/06/28 06:55:56;;;;;;;17.20;7.60;;;26.00;99.90;;;;;;4995849;28;20057;-66
2022/06/28 06:58:23;;;;;;;7.05;6.13;;;26.00;99.90;;;;;;5001852;28;20050;-69
2022/06/28 07:00:50;;;;;;;7.40;6.70;;;26.10;99.90;;;;;;4994989;28;20097;-72
2022/06/28 07:03:17;;;;;;;6.18;5.55;;;26.20;99.90;;;;;;4998793;28;20779;-69
2022/06/28 07:05:44;;;;;;;6.88;6.40;;;26.40;99.90;;;;;;4984460;28;20707;-67
2022/06/28 07:08:11;;;;;;;7.50;6.43;;;26.50;99.90;;;;;;4996832;28;20061;-70
2022/06/28 07:10:48;;;;;;;6.90;5.97;;;26.60;99.90;;;;;;4989353;28;20054;-66
2022/06/28 07:13:15;;;;;;;6.30;5.90;;;26.70;99.90;;;;;;4985495;28;20142;-70
2022/06/28 07:15:42;;;;;;;7.10;6.47;;;26.80;99.90;;;;;;4988395;28;20184;-69
2022/06/28 07:18:11;;;;;;;5.78;5.28;;;27.00;99.90;;;;;;4982227;28;20058;-66
2022/06/28 07:20:38;;;;;;;5.90;5.40;;;27.00;99.90;;;;;;4991349;28;20069;-66
2022/06/28 07:23:05;;;;;;;7.68;5.88;;;27.00;99.90;;;;;;5000219;28;20053;-66
2022/06/28 07:25:32;;;;;;;6.57;5.93;;;27.20;99.90;;;;;;4991368;28;20064;-69
2022/06/28 07:27:59;;;;;;;6.60;5.93;;;27.20;99.90;;;;;;4999091;28;20054;-66
2022/06/28 07:30:27;;;;;;;6.45;6.05;;;27.30;99.90;;;;;;4993016;28;20045;-67
2022/06/28 07:32:54;;;;;;;6.15;5.13;;;27.30;99.90;;;;;;4991728;28;20093;-65
2022/06/28 07:35:24;;;;;;;7.93;6.60;;;27.40;99.90;;;;;;4995686;28;20449;-68
2022/06/28 07:37:52;;;;;;;6.50;5.97;;;27.50;99.90;;;;;;5013239;28;20042;-67
2022/06/28 07:40:39;;;;;;;12.07;6.75;;;27.60;99.90;;;;;;4988581;28;20052;-67
2022/06/28 07:43:35;;;;;;;6.68;5.90;;;27.60;99.90;;;;;;4996201;28;20049;-66
2022/06/28 07:46:09;;;;;;;6.28;5.82;;;27.70;99.90;;;;;;4991273;28;20070;-68
2022/06/28 07:48:36;;;;;;;7.78;6.70;;;27.70;99.90;;;;;;4987300;28;20049;-67
2022/06/28 07:53:53;;;;;;;8.98;6.05;;;27.90;99.90;;;;;;5008123;28;20064;-66
2022/06/28 07:56:28;;;;;;;6.22;5.68;;;27.90;99.90;;;;;;5002516;28;20118;-66
2022/06/28 07:58:56;;;;;;;7.97;7.07;;;27.90;99.90;;;;;;4989606;28;20144;-71
2022/06/28 08:01:27;;;;;;;7.07;6.40;;;27.90;99.90;;;;;;4997018;28;20058;-67
2022/06/28 08:03:55;;;;;;;7.40;6.72;;;28.00;99.90;;;;;;4992302;28;20050;-70
2022/06/28 08:06:23;;;;;;;9.38;6.40;;;28.10;99.90;;;;;;4989429;28;20113;-67
2022/06/28 08:08:53;;;;;;;6.70;6.10;;;28.10;99.90;;;;;;4987678;28;20042;-67
2022/06/28 08:11:20;;;;;;;6.85;6.07;;;28.20;99.90;;;;;;4984505;28;20055;-67
2022/06/28 08:13:48;;;;;;;7.63;7.03;;;28.20;99.90;;;;;;4995900;28;20743;-67
2022/06/28 08:16:16;;;;;;;5.88;5.47;;;28.30;99.90;;;;;;4992302;28;20042;-68
2022/06/28 08:18:44;;;;;;;7.00;6.32;;;28.40;99.90;;;;;;5004854;28;20070;-67
2022/06/28 08:21:17;;;;;;;8.85;6.47;;;28.50;99.90;;;;;;4990787;28;20046;-66
2022/06/28 08:23:44;;;;;;;7.80;5.88;;;28.60;99.90;;;;;;4997469;28;20054;-66
2022/06/28 08:26:11;;;;;;;6.55;5.68;;;28.60;99.90;;;;;;4993937;28;20042;-67
2022/06/28 08:28:39;;;;;;;8.32;7.63;;;28.70;99.90;;;;;;5001694;28;20077;-67
2022/06/28 08:31:06;;;;;;;6.10;5.70;;;28.80;99.90;;;;;;4992155;28;20050;-70
2022/06/28 08:33:33;;;;;;;7.28;6.57;;;28.80;99.90;;;;;;4985732;28;20050;-71
2022/06/28 08:35:59;;;;;;;6.97;6.40;;;28.90;99.90;;;;;;4993439;28;20676;-69
2022/06/28 08:38:26;;;;;;;6.10;5.35;;;28.90;99.90;;;;;;5003414;28;20105;-69
2022/06/28 08:40:54;;;;;;;7.20;6.32;;;28.90;99.90;;;;;;4987949;28;20133;-66
2022/06/28 08:43:21;;;;;;;6.28;5.70;;;28.90;99.90;;;;;;5001023;28;20447;-72
2022/06/28 08:45:49;;;;;;;6.07;5.57;;;29.00;99.90;;;;;;4995326;28;20114;-69
2022/06/28 08:48:33;;;;;;;6.80;6.22;;;29.10;99.90;;;;;;5001555;28;20149;-69
2022/06/28 08:51:01;;;;;;;7.63;5.47;;;29.30;99.90;;;;;;4996076;28;20057;-66
2022/06/28 08:53:30;;;;;;;6.60;5.35;;;29.30;99.90;;;;;;4990997;28;20860;-66
2022/06/28 08:55:58;;;;;;;5.68;5.15;;;29.60;99.90;;;;;;5000181;28;20447;-68
2022/06/28 08:58:26;;;;;;;5.28;4.88;;;29.70;99.90;;;;;;4994378;28;20050;-68
2022/06/28 09:00:53;;;;;;;5.60;5.20;;;29.80;99.20;;;;;;4996486;28;20845;-73
2022/06/28 09:03:20;;;;;;;5.35;4.85;;;29.80;98.20;;;;;;4997271;28;20136;-71
2022/06/28 09:05:47;;;;;;;5.03;4.57;;;29.90;98.50;;;;;;4983240;28;20159;-66
2022/06/28 09:08:13;;;;;;;8.15;5.30;;;30.00;97.90;;;;;;4995916;28;20081;-67
2022/06/28 09:10:42;;;;;;;5.47;5.18;;;30.20;97.40;;;;;;4991970;28;20700;-66
2022/06/28 09:13:17;;;;;;;6.10;5.60;;;30.10;97.50;;;;;;4997442;28;20059;-72
2022/06/28 09:15:53;;;;;;;5.63;5.22;;;30.00;97.80;;;;;;4988625;28;20108;-67
2022/06/28 09:18:42;;;;;;;5.88;5.38;;;30.20;98.20;;;;;;4990048;28;20110;-68
2022/06/28 09:21:13;;;;;;;5.77;5.13;;;30.30;97.50;;;;;;4992517;28;20057;-72
2022/06/28 09:23:44;;;;;;;5.47;5.07;;;30.40;97.10;;;;;;4985041;28;20157;-67
2022/06/28 09:26:14;;;;;;;5.55;4.75;;;30.50;97.10;;;;;;4993993;28;20423;-68
2022/06/28 09:28:43;;;;;;;5.65;5.25;;;30.70;97.00;;;;;;4992447;28;20316;-67
2022/06/28 09:31:24;;;;;;;4.90;4.53;;;30.80;96.10;;;;;;4992305;28;20511;-73
2022/06/28 09:34:00;;;;;;;5.28;4.78;;;30.90;96.30;;;;;;4992504;28;20106;-66
2022/06/28 09:36:28;;;;;;;6.03;5.47;;;31.00;96.30;;;;;;4989360;28;20490;-71
2022/06/28 09:38:57;;;;;;;5.22;4.82;;;31.00;96.10;;;;;;4995750;28;20120;-70
2022/06/28 09:41:28;;;;;;;5.35;4.95;;;31.10;95.90;;;;;;4991404;28;20069;-69
2022/06/28 09:44:03;;;;;;;4.60;4.20;;;31.00;95.70;;;;;;4992147;28;20745;-72
2022/06/28 09:46:32;;;;;;;4.70;4.30;;;31.00;96.00;;;;;;4999301;28;20077;-69
2022/06/28 09:49:02;;;;;;;4.68;4.25;;;31.10;96.20;;;;;;4998752;28;20116;-71
2022/06/28 09:51:31;;;;;;;5.05;4.70;;;31.20;95.60;;;;;;4988840;28;20057;-67
2022/06/28 09:54:02;;;;;;;;;;;31.30;95.40;;;;;;4995728;28;20049;-67
2022/06/28 09:56:54;;;;;;;5.85;4.93;;;31.40;95.40;;;;;;4995364;28;19929;-67
2022/06/28 09:59:25;;;;;;;4.85;4.55;;;31.40;95.10;;;;;;4980629;28;20073;-70
2022/06/28 10:01:55;;;;;;;6.07;5.57;;;31.50;95.40;;;;;;4988736;28;20051;-69
2022/06/28 10:04:27;;;;;;;4.78;4.25;;;31.50;95.00;;;;;;4992521;28;20058;-70
2022/06/28 10:06:54;;;;;;;5.32;4.82;;;31.60;94.70;;;;;;4999006;28;20088;-72
2022/06/28 10:09:22;;;;;;;5.32;4.82;;;31.60;94.50;;;;;;4993860;28;20157;-68
2022/06/28 10:17:59;;;;;;;5.07;4.65;;;31.50;93.80;;;;;;4991170;28;20046;-72
2022/06/28 10:20:32;;;;;;;4.82;4.53;;;31.60;94.00;;;;;;4993300;28;20086;-67
2022/06/28 10:23:24;;;;;;;5.10;4.57;;;31.80;93.50;;;;;;4993118;28;20742;-68
2022/06/28 10:26:11;;;;;;;4.97;4.50;;;31.90;93.60;;;;;;4989422;28;20051;-71
2022/06/28 10:28:44;;;;;;;12.63;4.82;;;32.10;93.40;;;;;;4999976;28;20050;-66
2022/06/28 10:31:23;;;;;;;6.70;5.60;;;31.90;92.30;;;;;;4986791;28;20943;-69
2022/06/28 10:34:15;;;;;;;6.03;4.40;;;32.00;92.90;;;;;;4993668;28;20048;-67
2022/06/28 10:36:46;;;;;;;5.50;4.18;;;32.10;92.20;;;;;;4994134;28;20081;-67
2022/06/28 10:39:32;;;;;;;4.57;4.28;;;32.20;91.80;;;;;;4998611;28;20133;-68
2022/06/28 10:41:59;;;;;;;4.57;4.20;;;32.30;91.60;;;;;;4998255;28;20053;-66
2022/06/28 10:44:31;;;;;;;5.43;4.25;;;32.30;90.60;;;;;;4999984;28;20054;-68
2022/06/28 10:47:00;;;;;;;4.95;4.50;;;32.30;91.10;;;;;;4995303;28;20054;-68
2022/06/28 10:49:45;;;;;;;4.82;3.97;;;32.40;91.30;;;;;;4993902;28;20050;-72
2022/06/28 10:52:14;;;;;;;6.03;4.35;;;32.50;91.40;;;;;;4985866;28;20077;-72
2022/06/28 10:55:04;;;;;;;5.22;3.70;;;32.60;90.90;;;;;;4999481;28;20070;-67
2022/06/28 10:57:34;;;;;;;4.03;3.72;;;32.60;90.30;;;;;;4996713;28;20054;-67
2022/06/28 11:00:05;;;;;;;4.70;4.22;;;32.60;90.40;;;;;;4998103;28;20435;-67
2022/06/28 11:02:50;;;;;;;3.33;3.13;;;32.80;91.10;;;;;;4991651;28;20147;-71
2022/06/28 11:05:20;;;;;;;6.75;3.47;;;32.70;90.00;;;;;;4993278;28;20125;-72
2022/06/28 11:08:01;;;;;;;6.18;3.28;;;32.50;89.20;;;;;;5000200;28;20129;-70
2022/06/28 11:10:29;;;;;;;3.97;3.55;;;32.50;88.90;;;;;;5002728;28;20069;-67
2022/06/28 11:13:19;;;;;;;8.45;3.90;;;32.40;88.00;;;;;;4993364;28;20362;-68
2022/06/28 11:15:46;;;;;;;4.43;3.58;;;32.30;87.00;;;;;;4994384;28;20058;-68
2022/06/28 11:18:19;;;;;;;3.67;3.00;;;32.20;89.70;;;;;;4989345;28;20046;-67
2022/06/28 11:20:46;;;;;;;5.20;3.65;;;32.30;88.30;;;;;;4997390;28;20057;-68
2022/06/28 11:23:26;;;;;;;5.18;3.75;;;32.30;88.30;;;;;;4999575;28;20065;-74
2022/06/28 11:29:01;;;;;;;5.32;4.40;;;32.10;89.00;;;;;;5012303;28;20129;-73
2022/06/28 11:31:40;;;;;;;4.13;3.72;;;32.30;90.00;;;;;;5008999;28;20140;-69
2022/06/28 11:34:07;;;;;;;3.63;3.42;;;32.40;88.90;;;;;;5005372;28;20777;-76
2022/06/28 11:36:35;;;;;;;3.80;3.50;;;32.70;88.10;;;;;;5017994;28;20053;-69
2022/06/28 11:39:04;;;;;;;5.43;4.18;;;32.70;88.20;;;;;;5017426;28;20137;-69
2022/06/28 11:41:32;;;;;;;3.58;3.28;;;32.80;87.80;;;;;;5014039;28;20040;-77
2022/06/28 11:44:01;;;;;;;6.03;4.22;;;33.00;88.20;;;;;;5015135;28;20049;-66
2022/06/28 11:46:28;;;;;;;5.15;4.32;;;32.80;87.30;;;;;;5012490;28;20054;-71
2022/06/28 11:48:55;;;;;;;5.35;3.28;;;32.70;87.60;;;;;;5013713;28;20111;-71
2022/06/28 11:51:29;;;;;;;3.60;3.28;;;32.70;87.90;;;;;;5008131;28;20100;-67
2022/06/28 11:53:56;;;;;;;4.43;4.07;;;32.70;87.20;;;;;;5013922;28;20045;-67
2022/06/28 11:56:23;;;;;;;5.93;3.63;;;32.70;86.20;;;;;;5021083;28;20171;-66
2022/06/28 11:58:50;;;;;;;4.00;3.70;;;32.70;86.80;;;;;;5016797;28;20069;-67
2022/06/28 12:01:19;;;;;;;8.07;3.85;;;32.80;86.10;;;;;;5018017;28;20107;-68
2022/06/28 12:03:46;;;;;;;4.80;4.28;;;32.70;87.10;;;;;;5017962;28;20046;-70
2022/06/28 12:06:23;;;;;;;7.15;4.85;;;32.70;87.50;;;;;;5011671;28;20070;-68
2022/06/28 12:08:52;;;;;;;5.68;4.05;;;32.90;88.80;;;;;;5024291;28;20049;-71
2022/06/28 12:11:29;;;;;;;;;;;32.90;86.30;;;;;;5016168;28;20054;-67
2022/06/28 12:14:00;;;;;;;6.95;4.25;;;32.80;86.70;;;;;;5014716;28;20898;-67
2022/06/28 12:16:36;;;;;;;6.88;5.18;;;32.50;87.40;;;;;;5003622;28;20131;-72
2022/06/28 12:19:12;;;;;;;5.70;5.35;;;32.60;89.10;;;;;;4996445;28;20053;-68
2022/06/28 12:21:58;;;;;;;5.93;5.47;;;32.30;88.10;;;;;;4988124;28;20873;-67
2022/06/28 12:24:49;;;;;;;5.55;5.05;;;32.30;89.80;;;;;;4992250;28;20049;-73
2022/06/28 12:27:26;;;;;;;4.75;4.35;;;32.40;89.40;;;;;;4990723;28;20848;-70
2022/06/28 12:29:55;;;;;;;6.80;4.78;;;32.40;88.50;;;;;;4993071;28;20144;-75
2022/06/28 12:32:23;;;;;;;5.27;4.83;;;32.50;88.80;;;;;;4998942;28;20092;-72
2022/06/28 12:35:10;;;;;;;5.78;5.28;;;32.80;90.10;;;;;;4997880;28;20062;-72
2022/06/28 12:37:37;;;;;;;6.03;5.53;;;32.70;88.00;;;;;;4993862;28;20137;-70
2022/06/28 12:40:06;;;;;;;6.75;5.95;;;32.40;88.60;;;;;;4992768;28;20043;-68
2022/06/28 12:42:34;;;;;;;5.90;5.17;;;32.30;89.50;;;;;;4992441;28;20046;-74
2022/06/28 12:45:02;;;;;;;7.57;5.55;;;32.20;89.60;;;;;;4994315;28;20085;-69
2022/06/28 12:47:34;;;;;;;5.47;5.07;;;32.30;89.90;;;;;;4994405;28;20046;-70
2022/06/28 12:50:05;;;;;;;6.00;5.50;;;32.60;90.10;;;;;;4997535;28;20080;-70
2022/06/28 12:52:35;;;;;;;5.50;5.07;;;32.80;87.40;;;;;;4994196;28;20053;-71
2022/06/28 12:55:03;;;;;;;5.75;5.25;;;32.80;88.60;;;;;;4986098;28;20047;-68
2022/06/28 12:57:30;;;;;;;5.78;5.28;;;33.00;88.40;;;;;;4987309;28;20524;-68
2022/06/28 12:59:57;;;;;;;6.05;5.45;;;33.20;88.80;;;;;;5012479;28;20115;-71
2022/06/28 13:02:24;;;;;;;5.40;5.00;;;33.30;89.10;;;;;;4997311;28;20358;-68
2022/06/28 13:04:51;;;;;;;10.15;5.80;;;33.40;88.80;;;;;;4999083;28;20127;-68
2022/06/28 13:07:22;;;;;;;6.45;5.85;;;33.30;88.20;;;;;;4997701;28;20065;-68
2022/06/28 13:09:50;;;;;;;5.82;5.43;;;33.20;89.60;;;;;;5012514;28;20228;-73
2022/06/28 13:12:17;;;;;;;6.93;6.28;;;33.00;87.20;;;;;;5011869;28;20089;-71
2022/06/28 13:14:52;;;;;;;6.28;5.78;;;32.90;87.90;;;;;;5016415;28;20498;-69
2022/06/28 13:17:22;;;;;;;5.90;5.07;;;33.00;87.30;;;;;;5015863;28;20045;-78
2022/06/28 13:19:49;;;;;;;5.25;4.85;;;33.00;87.00;;;;;;5012884;28;20058;-70
2022/06/28 13:22:36;;;;;;;11.52;6.47;;;32.80;87.30;;;;;;5017286;28;20040;-69